createdAt,value
2019-04-11T00:00:48.604Z,100818.30
2019-04-11T00:03:35.585Z,100822.00
2019-04-11T00:06:13.343Z,100833.51
2019-04-11T00:08:50.559Z,100833.64
2019-04-11T00:11:28.620Z,100841.36
2019-04-11T00:14:07.456Z,100848.81
2019-04-11T00:16:45.631Z,100854.07
2019-04-11T00:19:23.228Z,100860.70
2019-04-11T00:22:01.550Z,100857.80
2019-04-11T00:24:39.560Z,100858.62
2019-04-11T00:27:17.605Z,100870.31
2019-04-11T00:29:55.493Z,100872.89
2019-04-11T00:32:33.807Z,100875.53
2019-04-11T00:35:11.248Z,100875.80
2019-04-11T00:37:49.528Z,100883.11
2019-04-11T00:40:27.025Z,100892.60
2019-04-11T00:43:05.371Z,100890.35
2019-04-11T00:45:43.576Z,100895.58
2019-04-11T00:48:21.777Z,100896.59
2019-04-11T00:51:01.350Z,100899.09
2019-04-11T00:53:40.374Z,100919.44
2019-04-11T00:56:19.935Z,100917.49
2019-04-11T00:58:58.695Z,100919.36
2019-04-11T01:01:36.751Z,100922.58
2019-04-11T01:04:14.179Z,100933.61
2019-04-11T01:06:52.229Z,100932.10
2019-04-11T01:09:30.579Z,100947.33
2019-04-11T01:12:08.437Z,100951.58
2019-04-11T01:14:46.906Z,100943.02
2019-04-11T01:17:25.299Z,100945.16
2019-04-11T01:20:03.007Z,100941.34
2019-04-11T01:22:41.010Z,100953.13
2019-04-11T01:25:20.107Z,100956.55
2019-04-11T01:27:58.461Z,100954.90
2019-04-11T01:30:43.129Z,100942.25
2019-04-11T01:33:20.746Z,100956.96
2019-04-11T01:35:59.570Z,100951.77
2019-04-11T01:38:42.019Z,100959.67
2019-04-11T01:41:20.520Z,100954.18
2019-04-11T01:44:02.190Z,100950.75
2019-04-11T01:46:38.831Z,100955.69
2019-04-11T01:49:22.592Z,100953.97
2019-04-11T01:52:00.174Z,100949.48
2019-04-11T01:54:39.756Z,100952.22
2019-04-11T01:57:18.058Z,100952.70
2019-04-11T01:59:55.659Z,100955.75
2019-04-11T02:02:56.997Z,100957.68
2019-04-11T02:05:35.041Z,100949.44
2019-04-11T02:08:13.698Z,100956.19
2019-04-11T02:10:52.911Z,100958.77
2019-04-11T02:13:32.154Z,100957.80
2019-04-11T02:16:10.583Z,100954.09
2019-04-11T02:18:48.513Z,100956.56
2019-04-11T02:21:25.874Z,100958.73
2019-04-11T02:24:20.621Z,100953.82
2019-04-11T02:27:16.897Z,100957.99
2019-04-11T02:29:56.743Z,100950.94
2019-04-11T02:32:36.963Z,100959.55
2019-04-11T02:35:15.491Z,100949.53
2019-04-11T02:37:57.081Z,100949.44
2019-04-11T02:40:36.804Z,100951.81
2019-04-11T02:43:15.903Z,100949.45
2019-04-11T02:46:08.821Z,100946.98
2019-04-11T02:48:35.322Z,100944.23
2019-04-11T02:51:14.598Z,100939.47
2019-04-11T02:53:54.295Z,100942.73
2019-04-11T02:56:33.427Z,100935.25
2019-04-11T02:59:15.389Z,100936.13
2019-04-11T03:01:55.870Z,100934.12
2019-04-11T03:04:34.757Z,100923.48
2019-04-11T03:07:14.056Z,100924.20
2019-04-11T03:09:53.397Z,100919.91
2019-04-11T03:12:33.347Z,100923.40
2019-04-11T03:15:27.171Z,100929.50
2019-04-11T03:17:59.517Z,100913.38
2019-04-11T03:20:40.875Z,100909.26
2019-04-11T03:23:16.472Z,100917.53
2019-04-11T03:25:54.345Z,100919.02
2019-04-11T03:28:35.325Z,100918.26
2019-04-11T03:31:58.954Z,100917.83
2019-04-11T03:37:17.267Z,100919.55
2019-04-11T03:39:29.279Z,100918.67
2019-04-11T03:42:03.958Z,100922.13
2019-04-11T03:44:39.451Z,100914.48
2019-04-11T03:47:29.148Z,100908.02
2019-04-11T03:49:55.829Z,100917.41
2019-04-11T03:52:30.612Z,100912.63
2019-04-11T03:55:11.135Z,100907.14
2019-04-11T03:57:51.805Z,100905.91
2019-04-11T04:00:35.422Z,100906.52
2019-04-11T04:03:11.219Z,100908.42
2019-04-11T04:05:50.462Z,100898.13
2019-04-11T04:08:34.240Z,100895.53
2019-04-11T04:11:23.184Z,100888.41
2019-04-11T04:14:26.245Z,100894.88
2019-04-11T04:17:21.383Z,100898.76
2019-04-11T04:20:19.400Z,100888.48
2019-04-11T04:23:11.893Z,100886.36
2019-04-11T04:25:49.459Z,100880.34
2019-04-11T04:28:31.774Z,100882.43
2019-04-11T04:31:11.472Z,100874.30
2019-04-11T04:33:48.956Z,100869.50
2019-04-11T04:36:28.511Z,100866.97
2019-04-11T04:39:10.536Z,100865.42
2019-04-11T04:41:58.226Z,100863.86
2019-04-11T04:44:27.617Z,100853.67
2019-04-11T04:47:15.310Z,100847.20
2019-04-11T04:49:45.976Z,100840.12
2019-04-11T04:52:25.219Z,100837.80
2019-04-11T04:55:05.565Z,100837.94
2019-04-11T04:57:42.978Z,100833.98
2019-04-11T05:00:23.384Z,100824.31
2019-04-11T05:03:02.189Z,100815.63
2019-04-11T05:05:39.949Z,100814.08
2019-04-11T05:08:18.558Z,100818.53
2019-04-11T05:10:58.553Z,100803.41
2019-04-11T05:13:36.706Z,100804.13
2019-04-11T05:16:17.812Z,100791.49
2019-04-11T05:18:55.201Z,100804.30
2019-04-11T05:21:35.177Z,100796.16
2019-04-11T05:24:14.513Z,100788.03
2019-04-11T05:26:52.340Z,100789.37
2019-04-11T05:29:30.483Z,100779.63
2019-04-11T05:32:09.708Z,100782.73
2019-04-11T05:34:47.236Z,100781.66
2019-04-11T05:37:24.468Z,100777.97
2019-04-11T05:40:03.113Z,100778.39
2019-04-11T05:42:43.215Z,100772.67
2019-04-11T05:45:22.642Z,100755.87
2019-04-11T05:48:01.122Z,100759.92
2019-04-11T05:50:47.123Z,100752.79
2019-04-11T05:53:21.432Z,100748.41
2019-04-11T05:56:01.581Z,100741.27
2019-04-11T05:58:42.120Z,100726.79
2019-04-11T06:01:27.356Z,100728.67
2019-04-11T06:04:14.213Z,100722.60
2019-04-11T06:07:00.130Z,100717.73
2019-04-11T06:09:41.531Z,100713.81
2019-04-11T06:12:50.496Z,100706.31
2019-04-11T06:15:36.245Z,100697.80
2019-04-11T06:18:27.023Z,100690.16
2019-04-11T06:21:06.057Z,100686.12
2019-04-11T06:24:16.213Z,100687.19
2019-04-11T06:27:25.487Z,100671.99
2019-04-11T06:30:24.713Z,100668.22
2019-04-11T06:33:23.172Z,100665.73
2019-04-11T06:36:26.641Z,100656.61
2019-04-11T06:39:27.779Z,100657.98
2019-04-11T06:42:12.895Z,100652.20
2019-04-11T06:45:17.662Z,100642.81
2019-04-11T06:48:07.384Z,100637.11
2019-04-11T06:50:59.682Z,100630.17
2019-04-11T06:53:41.962Z,100629.23
2019-04-11T06:56:23.705Z,100625.00
2019-04-11T06:59:07.982Z,100605.08
2019-04-11T07:01:47.765Z,100602.98
2019-04-11T07:04:38.273Z,100600.36
2019-04-11T07:07:16.415Z,100605.34
2019-04-11T07:09:59.867Z,100607.75
2019-04-11T07:12:55.940Z,100605.22
2019-04-11T07:15:37.690Z,100591.86
2019-04-11T07:18:32.871Z,100592.09
2019-04-11T07:21:12.305Z,100585.52
2019-04-11T07:24:07.504Z,100582.30
2019-04-11T07:27:00.726Z,100577.44
2019-04-11T07:30:09.548Z,100575.44
2019-04-11T07:32:47.764Z,100556.29
2019-04-11T07:35:53.589Z,100557.00
2019-04-11T07:38:39.284Z,100547.41
2019-04-11T07:41:38.914Z,100544.48
2019-04-11T07:44:17.582Z,100533.90
2019-04-11T07:47:19.125Z,100522.65
2019-04-11T07:49:55.649Z,100520.85
2019-04-11T07:52:35.882Z,100515.78
2019-04-11T07:55:14.209Z,100506.24
2019-04-11T07:57:56.490Z,100500.98
2019-04-11T08:01:01.497Z,100501.75
2019-04-11T08:04:13.165Z,100501.91
2019-04-11T08:07:17.976Z,100497.30
2019-04-11T08:10:11.413Z,100486.80
2019-04-11T08:12:49.904Z,100484.25
2019-04-11T08:15:44.330Z,100488.81
2019-04-11T08:18:39.312Z,100480.22
2019-04-11T08:21:36.092Z,100476.17
2019-04-11T08:24:20.504Z,100468.09
2019-04-11T08:27:17.644Z,100469.61
2019-04-11T08:29:58.271Z,100466.09
2019-04-11T08:32:46.389Z,100465.21
2019-04-11T08:35:51.975Z,100467.91
2019-04-11T08:38:29.919Z,100457.19
2019-04-11T08:41:26.025Z,100452.04
2019-04-11T08:44:32.658Z,100445.38
2019-04-11T08:47:16.275Z,100434.18
2019-04-11T08:49:57.029Z,100434.98
2019-04-11T08:52:44.509Z,100409.50
2019-04-11T08:55:48.588Z,100409.50
2019-04-11T08:58:33.095Z,100430.31
2019-04-11T09:01:11.628Z,100418.73
2019-04-11T09:04:18.544Z,100424.38
2019-04-11T09:06:56.781Z,100422.63
2019-04-11T09:09:51.518Z,100417.44
2019-04-11T09:12:28.960Z,100412.86
2019-04-11T09:15:24.495Z,100423.45
2019-04-11T09:18:12.534Z,100408.53
2019-04-11T09:21:07.724Z,100417.58
2019-04-11T09:23:46.374Z,100422.47
2019-04-11T09:26:49.692Z,100418.91
2019-04-11T09:29:32.322Z,100416.53
2019-04-11T09:32:27.025Z,100417.16
2019-04-11T09:35:12.304Z,100420.62
2019-04-11T09:37:51.695Z,100417.08
2019-04-11T09:40:52.041Z,100416.80
2019-04-11T09:43:33.914Z,100420.87
2019-04-11T09:46:30.584Z,100410.28
2019-04-11T09:49:39.606Z,100418.55
2019-04-11T09:52:36.733Z,100408.81
2019-04-11T09:55:37.431Z,100415.48
2019-04-11T09:58:27.396Z,100416.83
2019-04-11T10:01:21.886Z,100420.69
2019-04-11T10:04:01.543Z,100420.59
2019-04-11T10:06:57.093Z,100418.30
2019-04-11T10:10:00.176Z,100418.80
2019-04-11T10:13:02.669Z,100420.13
2019-04-11T10:15:51.588Z,100427.58
2019-04-11T10:18:47.944Z,100423.87
2019-04-11T10:21:25.936Z,100430.98
2019-04-11T10:24:20.890Z,100431.99
2019-04-11T10:27:08.817Z,100431.47
2019-04-11T10:30:04.541Z,100434.39
2019-04-11T10:32:47.611Z,100440.30
2019-04-11T10:35:46.209Z,100438.51
2019-04-11T10:38:24.582Z,100450.57
2019-04-11T10:41:20.870Z,100453.32
2019-04-11T10:43:59.391Z,100449.95
2019-04-11T10:46:51.541Z,100456.99
2019-04-11T10:49:54.657Z,100459.07
2019-04-11T10:52:36.210Z,100467.09
2019-04-11T10:55:17.703Z,100473.95
2019-04-11T10:58:26.992Z,100474.00
2019-04-11T11:01:33.794Z,100468.95
2019-04-11T11:04:17.888Z,100481.08
2019-04-11T11:06:58.709Z,100482.63
2019-04-11T11:09:58.682Z,100486.24
2019-04-11T11:12:55.827Z,100494.02
2019-04-11T11:15:41.909Z,100497.21
2019-04-11T11:19:15.782Z,100496.47
2019-04-11T11:21:33.290Z,100494.52
2019-04-11T11:24:31.784Z,100495.27
2019-04-11T11:27:09.599Z,100502.23
2019-04-11T11:30:18.828Z,100501.73
2019-04-11T11:32:56.593Z,100500.45
2019-04-11T11:36:04.594Z,100501.95
2019-04-11T11:38:43.997Z,100518.20
2019-04-11T11:41:42.746Z,100528.93
2019-04-11T11:44:20.619Z,100521.00
2019-04-11T11:47:17.432Z,100526.44
2019-04-11T11:50:00.512Z,100537.20
2019-04-11T11:53:08.222Z,100532.14
2019-04-11T11:55:43.247Z,100528.11
2019-04-11T11:58:44.191Z,100532.36
2019-04-11T12:01:22.321Z,100530.53
2019-04-11T12:04:35.439Z,100538.09
2019-04-11T12:07:11.125Z,100532.59
2019-04-11T12:10:13.456Z,100535.27
2019-04-11T12:13:11.610Z,100532.84
2019-04-11T12:16:10.066Z,100537.49
2019-04-11T12:19:15.956Z,100537.81
2019-04-11T12:21:53.626Z,100548.20
2019-04-11T12:24:48.302Z,100554.91
2019-04-11T12:27:37.145Z,100552.02
2019-04-11T12:30:26.610Z,100561.29
2019-04-11T12:33:21.548Z,100568.52
2019-04-11T12:36:08.037Z,100570.07
2019-04-11T12:38:55.468Z,100577.30
2019-04-11T12:41:38.863Z,100590.77
2019-04-11T12:44:35.048Z,100596.02
2019-04-11T12:47:38.740Z,100602.55
2019-04-11T12:50:34.131Z,100608.56
2019-04-11T12:53:13.205Z,100609.34
2019-04-11T12:56:09.699Z,100613.97
2019-04-11T12:59:05.501Z,100615.41
2019-04-11T13:02:09.964Z,100616.48
2019-04-11T13:04:48.879Z,100625.33
2019-04-11T13:07:38.535Z,100632.56
2019-04-11T13:10:25.608Z,100629.12
2019-04-11T13:13:21.333Z,100619.80
2019-04-11T13:16:11.509Z,100619.00
2019-04-11T13:19:05.070Z,100630.91
2019-04-11T13:21:55.101Z,100625.95
2019-04-11T13:24:49.122Z,100630.02
2019-04-11T13:27:30.382Z,100633.63
2019-04-11T13:30:45.229Z,100643.52
2019-04-11T13:33:28.401Z,100630.55
2019-04-11T13:36:37.267Z,100654.20
2019-04-11T13:39:14.588Z,100661.03
2019-04-11T13:42:10.772Z,100661.77
2019-04-11T13:44:48.714Z,100658.86
2019-04-11T13:47:42.955Z,100667.52
2019-04-11T13:50:21.373Z,100669.50
2019-04-11T13:53:15.934Z,100674.58
2019-04-11T13:55:53.137Z,100673.52
2019-04-11T13:59:00.609Z,100677.42
2019-04-11T14:01:39.715Z,100670.08
2019-04-11T14:04:23.875Z,100687.03
2019-04-11T14:07:02.705Z,100684.05
2019-04-11T14:09:45.945Z,100686.52
2019-04-11T14:12:26.149Z,100684.15
2019-04-11T14:15:08.938Z,100692.62
2019-04-11T14:17:59.254Z,100696.77
2019-04-11T14:20:48.832Z,100695.78
2019-04-11T14:23:44.460Z,100691.18
2019-04-11T14:26:52.538Z,100700.97
2019-04-11T14:29:54.047Z,100695.95
2019-04-11T14:32:33.153Z,100695.51
2019-04-11T14:35:41.399Z,100689.88
2019-04-11T14:38:24.315Z,100701.25
2019-04-11T14:41:23.138Z,100698.42
2019-04-11T14:44:02.660Z,100698.23
2019-04-11T14:47:06.870Z,100693.31
2019-04-11T14:49:46.214Z,100699.00
2019-04-11T14:52:42.281Z,100702.98
2019-04-11T14:55:20.750Z,100696.64
2019-04-11T14:58:25.040Z,100702.81
2019-04-11T15:01:04.384Z,100698.55
2019-04-11T15:04:05.976Z,100708.97
2019-04-11T15:06:47.212Z,100712.03
2019-04-11T15:09:46.505Z,100710.77
2019-04-11T15:12:27.624Z,100709.59
2019-04-11T15:15:26.608Z,100719.91
2019-04-11T15:18:05.501Z,100718.09
2019-04-11T15:20:55.485Z,100720.02
2019-04-11T15:23:51.976Z,100723.54
2019-04-11T15:26:47.814Z,100723.98
2019-04-11T15:29:31.114Z,100728.27
2019-04-11T15:32:45.299Z,100731.62
2019-04-11T15:35:22.637Z,100732.12
2019-04-11T15:38:16.850Z,100720.84
2019-04-11T15:40:57.781Z,100729.27
2019-04-11T15:43:52.418Z,100727.30
2019-04-11T15:46:31.829Z,100725.53
2019-04-11T15:49:40.079Z,100723.84
2019-04-11T15:52:21.011Z,100721.53
2019-04-11T15:55:18.175Z,100721.97
2019-04-11T15:57:58.169Z,100719.20
2019-04-11T16:00:57.594Z,100730.81
2019-04-11T16:03:37.877Z,100725.62
2019-04-11T16:06:48.904Z,100722.15
2019-04-11T16:09:26.447Z,100723.20
2019-04-11T16:12:26.819Z,100721.13
2019-04-11T16:15:13.605Z,100724.49
2019-04-11T16:18:24.050Z,100724.17
2019-04-11T16:21:05.774Z,100713.48
2019-04-11T16:23:52.315Z,100696.22
2019-04-11T16:26:42.744Z,100696.22
2019-04-11T16:29:41.622Z,100711.09
2019-04-11T16:32:19.873Z,100703.62
2019-04-11T16:35:10.698Z,100704.53
2019-04-11T16:37:48.889Z,100699.06
2019-04-11T16:40:54.121Z,100699.38
2019-04-11T16:43:32.313Z,100699.72
2019-04-11T16:46:30.958Z,100691.95
2019-04-11T16:49:07.625Z,100691.63
2019-04-11T16:51:44.992Z,100680.11
2019-04-11T16:54:22.378Z,100678.86
2019-04-11T16:56:59.828Z,100683.48
2019-04-11T16:59:36.798Z,100674.56
2019-04-11T17:02:13.847Z,100676.77
2019-04-11T17:04:51.343Z,100677.36
2019-04-11T17:07:37.353Z,100664.52
2019-04-11T17:10:16.492Z,100668.33
2019-04-11T17:12:56.026Z,100661.64
2019-04-11T17:15:36.476Z,100652.52
2019-04-11T17:18:14.187Z,100649.59
2019-04-11T17:20:51.836Z,100650.20
2019-04-11T17:23:30.338Z,100644.70
2019-04-11T17:26:08.034Z,100649.34
2019-04-11T17:28:45.341Z,100650.79
2019-04-11T17:31:25.717Z,100657.34
2019-04-11T17:34:02.518Z,100656.84
2019-04-11T17:36:41.963Z,100650.92
2019-04-11T17:39:23.315Z,100645.12
2019-04-11T17:42:00.502Z,100643.31
2019-04-11T17:44:37.910Z,100637.57
2019-04-11T17:47:16.571Z,100630.18
2019-04-11T17:49:53.272Z,100633.55
2019-04-11T17:52:30.368Z,100630.89
2019-04-11T17:55:08.058Z,100627.66
2019-04-11T17:57:45.724Z,100627.39
2019-04-11T18:00:30.791Z,100625.19
2019-04-11T18:03:11.776Z,100627.23
2019-04-11T18:05:47.114Z,100619.28
2019-04-11T18:08:25.154Z,100617.77
2019-04-11T18:11:02.348Z,100619.80
2019-04-11T18:13:39.706Z,100617.92
2019-04-11T18:16:17.422Z,100627.90
2019-04-11T18:18:55.418Z,100619.97
2019-04-11T18:21:34.862Z,100622.58
2019-04-11T18:24:11.113Z,100620.48
2019-04-11T18:26:51.749Z,100627.99
2019-04-11T18:29:28.687Z,100622.78
2019-04-11T18:32:06.583Z,100620.80
2019-04-11T18:34:44.738Z,100619.63
2019-04-11T18:37:22.452Z,100616.16
2019-04-11T18:39:59.233Z,100617.09
2019-04-11T18:42:36.814Z,100608.96
2019-04-11T18:45:13.791Z,100604.94
2019-04-11T18:47:50.824Z,100602.56
2019-04-11T18:50:28.931Z,100600.61
2019-04-11T18:53:06.187Z,100598.47
2019-04-11T18:55:43.705Z,100589.65
2019-04-11T18:58:21.233Z,100603.37
2019-04-11T19:00:59.495Z,100600.80
2019-04-11T19:03:41.355Z,100604.81
2019-04-11T19:06:27.485Z,100599.72
2019-04-11T19:08:57.568Z,100600.09
2019-04-11T19:11:35.079Z,100594.09
2019-04-11T19:14:15.773Z,100598.22
2019-04-11T19:16:51.785Z,100598.73
2019-04-11T19:19:28.801Z,100605.47
2019-04-11T19:22:08.503Z,100603.94
2019-04-11T19:24:45.158Z,100615.23
2019-04-11T19:27:22.259Z,100609.66
2019-04-11T19:29:59.302Z,100608.09
2019-04-11T19:32:37.502Z,100610.84
2019-04-11T19:35:14.998Z,100614.28
2019-04-11T19:37:52.265Z,100608.61
2019-04-11T19:40:30.576Z,100612.72
2019-04-11T19:43:09.578Z,100613.53
2019-04-11T19:45:49.811Z,100601.70
2019-04-11T19:48:25.800Z,100604.06
2019-04-11T19:51:03.453Z,100594.93
2019-04-11T19:53:41.690Z,100597.47
2019-04-11T19:56:33.741Z,100601.38
2019-04-11T19:59:11.239Z,100602.64
2019-04-11T20:01:50.826Z,100606.84
2019-04-11T20:04:27.620Z,100601.76
2019-04-11T20:07:04.739Z,100593.88
2019-04-11T20:09:42.021Z,100601.34
2019-04-11T20:12:19.616Z,100594.06
2019-04-11T20:14:57.207Z,100600.30
2019-04-11T20:17:44.045Z,100586.42
2019-04-11T20:20:14.527Z,100585.16
2019-04-11T20:22:58.852Z,100593.31
2019-04-11T20:25:32.086Z,100587.39
2019-04-11T20:28:09.367Z,100592.27
2019-04-11T20:30:46.870Z,100587.91
2019-04-11T20:33:27.316Z,100582.03
2019-04-11T20:36:03.334Z,100581.75
2019-04-11T20:38:40.221Z,100577.96
2019-04-11T20:41:17.199Z,100577.55
2019-04-11T20:43:56.881Z,100575.45
2019-04-11T20:46:53.280Z,100578.59
2019-04-11T20:49:30.406Z,100570.39
2019-04-11T20:52:07.111Z,100568.47
2019-04-11T20:54:45.382Z,100569.96
2019-04-11T20:57:26.274Z,100571.26
2019-04-11T21:00:03.746Z,100569.66
2019-04-11T21:02:41.343Z,100558.61
2019-04-11T21:05:18.821Z,100565.50
2019-04-11T21:08:02.555Z,100568.76
2019-04-11T21:10:36.905Z,100572.97
2019-04-11T21:13:13.999Z,100573.83
2019-04-11T21:15:50.823Z,100577.80
2019-04-11T21:18:28.808Z,100579.62
2019-04-11T21:21:06.162Z,100580.09
2019-04-11T21:23:43.903Z,100582.98
2019-04-11T21:26:20.802Z,100586.34
2019-04-11T21:28:59.638Z,100580.34
2019-04-11T21:31:37.187Z,100588.10
2019-04-11T21:34:14.843Z,100592.97
2019-04-11T21:36:52.469Z,100590.86
2019-04-11T21:39:29.785Z,100597.44
2019-04-11T21:42:06.990Z,100592.45
2019-04-11T21:44:44.009Z,100587.39
2019-04-11T21:47:21.175Z,100593.89
2019-04-11T21:49:58.170Z,100586.14
2019-04-11T21:52:35.279Z,100593.95
2019-04-11T21:55:15.198Z,100595.53
2019-04-11T21:57:51.920Z,100602.79
2019-04-11T22:00:40.839Z,100616.61
2019-04-11T22:03:23.990Z,100626.58
2019-04-11T22:06:00.092Z,100628.09
2019-04-11T22:08:37.819Z,100630.92
2019-04-11T22:11:15.271Z,100636.89
2019-04-11T22:13:52.188Z,100640.98
2019-04-11T22:16:28.983Z,100640.13
2019-04-11T22:19:07.410Z,100646.98
2019-04-11T22:21:45.999Z,100649.78
2019-04-11T22:24:23.914Z,100644.97
2019-04-11T22:27:01.315Z,100654.81
2019-04-11T22:29:39.461Z,100659.16
2019-04-11T22:32:19.826Z,100656.67
2019-04-11T22:34:59.212Z,100663.88
2019-04-11T22:37:36.428Z,100667.53
2019-04-11T22:40:13.830Z,100663.91
2019-04-11T22:42:51.057Z,100670.42
2019-04-11T22:45:28.533Z,100672.20
2019-04-11T22:48:08.501Z,100677.73
2019-04-11T22:50:44.976Z,100679.04
2019-04-11T22:53:22.342Z,100682.16
2019-04-11T22:55:59.256Z,100676.73
2019-04-11T22:58:36.388Z,100685.39
2019-04-11T23:01:13.980Z,100684.12
2019-04-11T23:03:58.983Z,100680.38
2019-04-11T23:06:34.728Z,100690.25
2019-04-11T23:09:12.592Z,100696.68
2019-04-11T23:11:49.489Z,100702.62
2019-04-11T23:14:27.000Z,100705.16
2019-04-11T23:17:04.286Z,100707.55
2019-04-11T23:19:43.920Z,100706.41
2019-04-11T23:22:20.803Z,100713.66
2019-04-11T23:24:58.622Z,100713.50
2019-04-11T23:27:36.077Z,100713.82
2019-04-11T23:30:15.906Z,100717.98
2019-04-11T23:32:53.090Z,100718.91
2019-04-11T23:35:31.571Z,100722.81
2019-04-11T23:38:09.098Z,100726.50
2019-04-11T23:40:46.508Z,100723.00
2019-04-11T23:43:22.886Z,100727.26
2019-04-11T23:46:00.570Z,100726.53
2019-04-11T23:48:38.002Z,100733.92
2019-04-11T23:51:16.016Z,100738.70
2019-04-11T23:53:53.244Z,100745.13
2019-04-11T23:56:31.346Z,100744.64
2019-04-11T23:59:08.373Z,100754.39
